Time;durP1;ratioP1;P1;durP2;ratioP2;P2;SDS_P1;SDS_P2;PMS_P1;PMS_P2;Temp;Humidity;BMP_temperature;BMP_pressure;BME280_temperature;BME280_humidity;BME280_pressure;Samples;Min_cycle;Max_cycle;Signal;HPM_P1;HPM_P2
2022/11/23 00:01:11;;;;;;;7.88;5.20;;;7.20;99.90;;;;;;5019118;28;20407;-67
2022/11/23 00:03:37;;;;;;;7.78;4.28;;;7.30;99.90;;;;;;5053798;28;20040;-67
2022/11/23 00:06:03;;;;;;;8.43;5.80;;;7.20;99.90;;;;;;5053156;28;20045;-67
2022/11/23 00:08:28;;;;;;;9.10;5.28;;;7.40;99.90;;;;;;5053110;28;20041;-67
2022/11/23 00:10:57;;;;;;;9.85;4.88;;;7.40;99.90;;;;;;5053441;28;20076;-67
2022/11/23 00:13:23;;;;;;;7.60;4.72;;;7.50;99.90;;;;;;5053097;28;20048;-67
2022/11/23 00:15:48;;;;;;;9.80;5.53;;;7.50;99.90;;;;;;5053042;28;20040;-67
2022/11/23 00:18:14;;;;;;;8.38;5.07;;;7.30;99.90;;;;;;5052988;28;20044;-67
2022/11/23 00:20:40;;;;;;;6.68;4.97;;;7.90;99.90;;;;;;5053304;28;20133;-67
2022/11/23 00:23:05;;;;;;;9.02;5.68;;;7.50;99.90;;;;;;5053321;28;20051;-66
2022/11/23 00:25:31;;;;;;;6.93;5.38;;;7.40;99.90;;;;;;5053313;28;20123;-67
2022/11/23 00:27:57;;;;;;;8.68;5.10;;;7.40;99.90;;;;;;5052838;28;20041;-67
2022/11/23 00:30:22;;;;;;;12.25;4.95;;;7.40;99.90;;;;;;5053243;28;20079;-67
2022/11/23 00:32:48;;;;;;;7.00;4.90;;;8.20;99.90;;;;;;5053276;28;20368;-67
2022/11/23 00:35:14;;;;;;;7.22;4.90;;;7.70;99.90;;;;;;5053136;28;20476;-67
2022/11/23 00:37:39;;;;;;;7.05;5.03;;;7.50;99.90;;;;;;5052909;28;20044;-67
2022/11/23 00:40:06;;;;;;;12.43;4.90;;;7.50;99.90;;;;;;5053199;28;20041;-67
2022/11/23 00:42:31;;;;;;;6.57;5.35;;;7.50;99.90;;;;;;5053112;28;20045;-67
2022/11/23 00:44:57;;;;;;;9.15;6.00;;;7.50;99.90;;;;;;5053037;28;20070;-67
2022/11/23 00:47:23;;;;;;;9.75;6.00;;;7.60;99.90;;;;;;5052978;28;20076;-67
2022/11/23 00:49:48;;;;;;;6.45;5.10;;;7.60;99.90;;;;;;5053104;28;20392;-67
2022/11/23 00:52:14;;;;;;;7.13;5.50;;;7.60;99.90;;;;;;5052987;28;20127;-67
2022/11/23 00:54:39;;;;;;;9.63;5.20;;;7.80;99.90;;;;;;5054034;28;20520;-67
2022/11/23 00:57:05;;;;;;;8.40;4.88;;;8.00;99.90;;;;;;5056604;28;20408;-67
2022/11/23 00:59:31;;;;;;;7.00;5.07;;;7.80;99.90;;;;;;5056811;28;20067;-67
2022/11/23 01:01:56;;;;;;;12.32;5.75;;;7.50;99.90;;;;;;5055250;28;20052;-67
2022/11/23 01:04:22;;;;;;;9.52;4.88;;;7.60;99.90;;;;;;5056812;28;20049;-67
2022/11/23 01:06:48;;;;;;;9.57;5.65;;;7.60;99.90;;;;;;5056666;28;20388;-67
2022/11/23 01:09:23;;;;;;;7.55;5.22;;;7.40;99.90;;;;;;5056683;28;20395;-67
2022/11/23 01:11:49;;;;;;;8.48;5.05;;;7.70;99.90;;;;;;5056681;28;20044;-67
2022/11/23 01:14:19;;;;;;;6.97;4.63;;;7.60;99.90;;;;;;5056629;28;20488;-67
2022/11/23 01:16:46;;;;;;;10.80;5.47;;;7.50;99.90;;;;;;5056559;28;20087;-67
2022/11/23 01:19:15;;;;;;;10.55;5.25;;;7.70;99.90;;;;;;5038366;28;20045;-68
2022/11/23 01:21:41;;;;;;;9.50;5.40;;;7.50;99.90;;;;;;5038383;28;20077;-67
2022/11/23 01:24:10;;;;;;;8.45;5.20;;;7.70;99.90;;;;;;5038300;28;20068;-67
2022/11/23 01:26:36;;;;;;;8.23;5.28;;;7.60;99.90;;;;;;5056280;28;20437;-68
2022/11/23 01:29:01;;;;;;;8.43;4.60;;;7.50;99.90;;;;;;5056245;28;20116;-68
2022/11/23 01:31:27;;;;;;;10.63;5.47;;;7.60;99.90;;;;;;5056230;28;20471;-67
2022/11/23 01:33:56;;;;;;;5.65;4.55;;;7.50;99.90;;;;;;5055890;28;20394;-67
2022/11/23 01:36:25;;;;;;;9.93;5.10;;;7.40;99.90;;;;;;5056176;28;20048;-67
2022/11/23 01:38:51;;;;;;;6.43;4.03;;;7.70;99.90;;;;;;5055710;28;20557;-67
2022/11/23 01:41:25;;;;;;;6.57;4.13;;;7.50;99.90;;;;;;5056035;28;20044;-67
2022/11/23 01:43:52;;;;;;;8.02;4.63;;;7.40;99.90;;;;;;5056060;28;20041;-67
2022/11/23 01:46:18;;;;;;;6.65;4.60;;;7.40;99.90;;;;;;5055703;28;20480;-67
2022/11/23 01:48:51;;;;;;;7.05;4.22;;;7.60;99.90;;;;;;5037688;28;20134;-68
2022/11/23 01:51:22;;;;;;;5.22;4.38;;;7.50;99.90;;;;;;5055859;28;20032;-68
2022/11/23 01:53:51;;;;;;;6.40;4.18;;;7.90;99.90;;;;;;5055864;28;20049;-68
2022/11/23 01:56:23;;;;;;;5.28;3.70;;;8.00;99.90;;;;;;5055332;28;20500;-68
2022/11/23 01:58:52;;;;;;;11.27;4.72;;;7.60;99.90;;;;;;5055770;28;20503;-67
2022/11/23 02:01:18;;;;;;;9.20;4.82;;;7.60;99.90;;;;;;5055663;28;20106;-67
2022/11/23 02:03:47;;;;;;;6.43;4.70;;;7.60;99.90;;;;;;5055728;28;20511;-68
2022/11/23 02:06:17;;;;;;;6.82;4.03;;;7.60;99.90;;;;;;5054194;28;20096;-67
2022/11/23 02:08:44;;;;;;;7.28;3.75;;;7.70;99.90;;;;;;5055476;28;20170;-67
2022/11/23 02:11:12;;;;;;;4.60;3.92;;;7.70;99.90;;;;;;5055577;28;20044;-67
2022/11/23 02:13:38;;;;;;;9.23;4.00;;;7.60;99.90;;;;;;5055487;28;20044;-68
2022/11/23 02:16:04;;;;;;;6.00;4.05;;;7.70;99.90;;;;;;5037344;28;20077;-67
2022/11/23 02:18:33;;;;;;;6.45;3.60;;;7.60;99.90;;;;;;5055417;28;20048;-67
2022/11/23 02:21:00;;;;;;;5.53;4.05;;;7.80;99.90;;;;;;5055153;28;20052;-67
2022/11/23 02:23:38;;;;;;;8.70;3.67;;;7.70;99.90;;;;;;5055388;28;20502;-69
2022/11/23 02:26:25;;;;;;;4.68;3.90;;;7.70;99.90;;;;;;5055270;28;20083;-68
2022/11/23 02:29:23;;;;;;;5.25;3.70;;;7.80;99.90;;;;;;5055158;28;20457;-67
2022/11/23 02:31:49;;;;;;;4.18;3.25;;;7.70;99.90;;;;;;5055203;28;20098;-68
2022/11/23 02:34:16;;;;;;;3.85;3.42;;;8.10;99.90;;;;;;5055144;28;20037;-68
2022/11/23 02:36:45;;;;;;;5.53;4.03;;;8.00;99.90;;;;;;5055132;28;20472;-68
2022/11/23 02:39:31;;;;;;;8.15;4.13;;;8.10;99.90;;;;;;5036895;28;20091;-68
2022/11/23 02:41:58;;;;;;;7.75;4.13;;;7.80;99.90;;;;;;5054912;28;20387;-68
2022/11/23 02:44:43;;;;;;;4.60;3.33;;;8.50;99.90;;;;;;5054920;28;20036;-68
2022/11/23 02:47:09;;;;;;;7.55;4.15;;;7.70;99.90;;;;;;5036651;28;20080;-68
2022/11/23 02:49:35;;;;;;;5.15;3.85;;;7.80;99.90;;;;;;5054848;28;20033;-68
2022/11/23 02:52:02;;;;;;;5.18;3.30;;;8.00;99.90;;;;;;5036888;28;20472;-69
2022/11/23 02:54:28;;;;;;;8.45;3.72;;;7.80;99.90;;;;;;5036634;28;20476;-68
2022/11/23 02:56:53;;;;;;;6.35;2.83;;;7.90;99.90;;;;;;5036506;28;20044;-68
2022/11/23 02:59:19;;;;;;;4.50;2.97;;;7.90;99.90;;;;;;5036526;28;20431;-68
2022/11/23 03:01:45;;;;;;;6.05;3.78;;;7.90;99.90;;;;;;5036590;28;20387;-68
2022/11/23 03:04:11;;;;;;;5.88;2.90;;;7.90;99.90;;;;;;5036415;28;20118;-68
2022/11/23 03:06:37;;;;;;;5.20;3.22;;;8.10;99.90;;;;;;5054137;28;20123;-68
2022/11/23 03:09:03;;;;;;;4.25;3.20;;;7.80;99.90;;;;;;5054357;28;20044;-68
2022/11/23 03:11:29;;;;;;;6.43;2.85;;;7.80;99.90;;;;;;5054397;28;20494;-68
2022/11/23 03:13:54;;;;;;;7.28;3.53;;;8.10;99.90;;;;;;5054382;28;20037;-68
2022/11/23 03:16:20;;;;;;;6.43;3.28;;;7.90;99.90;;;;;;5053951;28;20076;-68
2022/11/23 03:18:46;;;;;;;5.32;3.80;;;8.10;99.90;;;;;;5036248;28;20124;-68
2022/11/23 03:21:12;;;;;;;4.65;2.95;;;8.10;99.90;;;;;;5054137;28;20128;-68
2022/11/23 03:23:38;;;;;;;8.82;3.45;;;8.00;99.90;;;;;;5036114;28;20098;-68
2022/11/23 03:26:04;;;;;;;6.95;3.17;;;8.10;99.90;;;;;;5035994;28;20510;-68
2022/11/23 03:28:30;;;;;;;5.80;3.75;;;7.80;99.90;;;;;;5035904;28;20099;-68
2022/11/23 03:30:55;;;;;;;8.20;3.85;;;7.90;99.90;;;;;;5036147;28;20429;-68
2022/11/23 03:33:21;;;;;;;8.45;4.57;;;8.10;99.90;;;;;;5036283;28;20032;-68
2022/11/23 03:35:48;;;;;;;5.80;3.75;;;7.80;99.90;;;;;;5053856;28;20120;-68
2022/11/23 03:38:14;;;;;;;4.85;3.78;;;7.90;99.90;;;;;;5053937;28;20037;-68
2022/11/23 03:40:40;;;;;;;6.63;3.72;;;8.20;99.90;;;;;;5053685;28;20064;-68
2022/11/23 03:43:06;;;;;;;8.30;4.22;;;8.00;99.90;;;;;;5053811;28;20033;-68
2022/11/23 03:45:31;;;;;;;8.50;3.83;;;8.10;99.90;;;;;;5036060;28;20032;-68
2022/11/23 03:47:57;;;;;;;8.40;4.10;;;7.90;99.90;;;;;;5053725;28;20068;-68
2022/11/23 03:50:22;;;;;;;7.38;4.30;;;8.00;99.90;;;;;;5053777;28;20395;-68
2022/11/23 03:52:48;;;;;;;7.03;4.15;;;8.00;99.90;;;;;;5053444;28;20041;-68
2022/11/23 03:55:14;;;;;;;8.20;4.50;;;7.90;99.90;;;;;;5053284;28;20049;-68
2022/11/23 03:57:40;;;;;;;7.20;4.07;;;7.80;99.90;;;;;;5053328;28;20080;-68
2022/11/23 04:00:07;;;;;;;7.95;4.10;;;7.90;99.90;;;;;;5053575;28;20126;-68
2022/11/23 04:02:33;;;;;;;6.85;4.38;;;7.90;99.90;;;;;;5053566;28;20430;-68
2022/11/23 04:05:00;;;;;;;9.75;4.43;;;8.00;99.90;;;;;;5053372;28;20048;-68
2022/11/23 04:07:26;;;;;;;7.72;4.32;;;7.80;99.90;;;;;;5053392;28;20048;-68
2022/11/23 04:09:51;;;;;;;8.55;4.50;;;8.00;99.90;;;;;;5053469;28;20041;-68
2022/11/23 04:12:17;;;;;;;9.60;4.35;;;8.10;99.90;;;;;;5053399;28;20045;-68
2022/11/23 04:14:43;;;;;;;10.05;4.60;;;8.00;99.90;;;;;;5053404;28;20076;-68
2022/11/23 04:17:08;;;;;;;13.05;4.35;;;7.90;99.90;;;;;;5053063;28;20051;-68
2022/11/23 04:19:34;;;;;;;9.55;4.97;;;8.00;99.90;;;;;;5035616;28;20044;-68
2022/11/23 04:22:00;;;;;;;6.90;4.28;;;8.00;99.90;;;;;;5053357;28;20132;-68
2022/11/23 04:24:26;;;;;;;10.23;5.13;;;7.90;99.90;;;;;;5053352;28;20036;-68
2022/11/23 04:26:51;;;;;;;7.65;4.40;;;7.80;99.90;;;;;;5053171;28;20048;-68
2022/11/23 04:29:17;;;;;;;7.60;4.22;;;7.80;99.90;;;;;;5036152;28;20029;-68
2022/11/23 04:31:43;;;;;;;11.65;5.43;;;8.20;99.90;;;;;;5057440;28;20072;-68
2022/11/23 04:34:09;;;;;;;9.20;5.32;;;7.90;99.90;;;;;;5057060;28;20041;-69
2022/11/23 04:36:34;;;;;;;8.38;4.38;;;7.90;99.90;;;;;;5056994;28;20041;-69
2022/11/23 04:39:01;;;;;;;9.07;5.70;;;7.90;99.90;;;;;;5056960;28;20045;-68
2022/11/23 04:41:27;;;;;;;9.02;5.07;;;8.20;99.90;;;;;;5056927;28;20040;-68
2022/11/23 04:43:53;;;;;;;15.25;5.72;;;8.70;99.90;;;;;;5039109;28;20041;-68
2022/11/23 04:46:18;;;;;;;11.02;5.00;;;8.00;99.90;;;;;;5057164;28;20041;-68
2022/11/23 04:48:44;;;;;;;10.38;4.53;;;8.10;99.90;;;;;;5056687;28;20141;-68
2022/11/23 04:51:10;;;;;;;8.77;5.45;;;8.00;99.90;;;;;;5056781;28;20036;-69
2022/11/23 04:53:35;;;;;;;9.38;5.30;;;7.90;99.90;;;;;;5056726;28;20041;-68
2022/11/23 04:56:04;;;;;;;9.85;5.95;;;8.00;99.90;;;;;;5038618;28;20057;-68
2022/11/23 04:58:30;;;;;;;13.00;5.35;;;7.90;99.90;;;;;;5056981;28;20044;-68
2022/11/23 05:00:57;;;;;;;10.00;5.68;;;8.30;99.90;;;;;;5056915;28;20033;-68
2022/11/23 05:03:23;;;;;;;9.68;5.53;;;8.00;99.90;;;;;;5056717;28;20063;-68
2022/11/23 05:05:49;;;;;;;10.55;5.50;;;8.30;99.90;;;;;;5056738;28;20032;-68
2022/11/23 05:08:15;;;;;;;11.88;5.90;;;7.90;99.90;;;;;;5056402;28;20137;-69
2022/11/23 05:10:40;;;;;;;10.75;5.32;;;8.10;99.90;;;;;;5056711;28;20045;-69
2022/11/23 05:13:06;;;;;;;12.98;5.40;;;8.00;99.90;;;;;;5038703;28;20483;-68
2022/11/23 05:15:32;;;;;;;13.90;5.88;;;7.80;99.90;;;;;;5056691;28;20086;-68
2022/11/23 05:18:02;;;;;;;11.27;6.22;;;8.10;99.90;;;;;;5056235;28;20048;-68
2022/11/23 05:20:29;;;;;;;13.43;5.38;;;7.90;99.90;;;;;;5038749;28;20520;-69
2022/11/23 05:22:54;;;;;;;9.80;6.00;;;7.90;99.90;;;;;;5056161;28;20045;-68
2022/11/23 05:25:20;;;;;;;12.60;5.70;;;8.00;99.90;;;;;;5038272;28;20116;-69
2022/11/23 05:27:46;;;;;;;13.70;5.30;;;7.90;99.90;;;;;;5056325;28;20045;-69
2022/11/23 05:30:13;;;;;;;10.05;5.70;;;7.80;99.90;;;;;;5056378;28;20047;-69
2022/11/23 05:32:38;;;;;;;11.63;6.20;;;7.80;99.90;;;;;;5038530;28;20033;-68
2022/11/23 05:35:05;;;;;;;8.70;5.13;;;8.30;99.90;;;;;;5056091;28;20442;-69
2022/11/23 05:37:30;;;;;;;12.02;5.68;;;7.90;99.90;;;;;;5038233;28;20091;-69
2022/11/23 05:39:56;;;;;;;10.80;5.28;;;8.10;99.90;;;;;;5055979;28;20451;-68
2022/11/23 05:42:22;;;;;;;11.57;5.68;;;8.40;99.90;;;;;;5056104;28;20048;-68
2022/11/23 05:44:47;;;;;;;11.95;5.35;;;8.00;99.90;;;;;;5056007;28;20041;-68
2022/11/23 05:47:13;;;;;;;11.43;6.70;;;7.90;99.90;;;;;;5055448;28;20566;-69
2022/11/23 05:49:39;;;;;;;10.52;5.43;;;8.10;99.90;;;;;;5056021;28;20087;-68
2022/11/23 05:52:05;;;;;;;8.93;5.07;;;7.90;99.90;;;;;;5038182;28;20075;-68
2022/11/23 05:54:30;;;;;;;8.85;5.10;;;7.90;99.90;;;;;;5021522;28;20041;-68
2022/11/23 05:56:56;;;;;;;8.48;5.50;;;7.80;99.90;;;;;;5055417;28;20522;-68
2022/11/23 05:59:22;;;;;;;9.35;5.40;;;7.80;99.90;;;;;;5055511;28;20064;-68
2022/11/23 06:01:48;;;;;;;10.65;5.13;;;7.90;99.90;;;;;;5055763;28;20136;-68
2022/11/23 06:04:14;;;;;;;5.93;4.15;;;8.00;99.90;;;;;;5055731;28;20472;-68
2022/11/23 06:06:40;;;;;;;6.75;4.28;;;7.80;99.90;;;;;;5037511;28;20033;-68
2022/11/23 06:09:05;;;;;;;8.38;4.28;;;7.90;99.90;;;;;;5055644;28;20178;-69
2022/11/23 06:11:31;;;;;;;6.82;3.88;;;7.80;99.90;;;;;;5037825;28;20120;-69
2022/11/23 06:13:57;;;;;;;8.90;4.63;;;7.70;99.90;;;;;;5055609;28;20040;-69
2022/11/23 06:16:23;;;;;;;9.43;4.75;;;7.70;99.90;;;;;;5055246;28;20041;-68
2022/11/23 06:18:49;;;;;;;9.20;4.50;;;8.00;99.90;;;;;;5055572;28;20051;-68
2022/11/23 06:21:14;;;;;;;7.25;4.65;;;7.70;99.90;;;;;;5055539;28;20051;-69
2022/11/23 06:23:40;;;;;;;7.93;4.43;;;7.70;99.90;;;;;;5055420;28;20068;-68
2022/11/23 06:26:06;;;;;;;9.15;4.97;;;7.70;99.90;;;;;;5037426;28;20488;-68
2022/11/23 06:28:34;;;;;;;7.20;3.95;;;7.60;99.90;;;;;;5055286;28;20033;-68
2022/11/23 06:31:02;;;;;;;7.70;4.38;;;7.60;99.90;;;;;;5056022;28;20052;-69
2022/11/23 06:33:28;;;;;;;6.55;4.15;;;7.90;99.90;;;;;;5055860;28;20076;-69
2022/11/23 06:35:57;;;;;;;4.85;3.15;;;7.60;99.90;;;;;;5056033;28;20033;-68
2022/11/23 06:38:23;;;;;;;5.45;3.50;;;7.90;99.90;;;;;;5055494;28;20037;-69
2022/11/23 06:40:49;;;;;;;7.57;3.78;;;7.60;99.90;;;;;;5054987;28;20047;-68
2022/11/23 06:43:14;;;;;;;6.00;3.83;;;7.50;99.90;;;;;;5055213;28;20120;-69
2022/11/23 06:45:40;;;;;;;7.47;3.72;;;7.60;99.90;;;;;;5037019;28;20033;-67
2022/11/23 06:48:06;;;;;;;5.38;3.00;;;7.50;99.90;;;;;;5036955;28;20048;-70
2022/11/23 06:50:32;;;;;;;7.80;3.30;;;7.60;99.90;;;;;;5037071;28;20116;-70
2022/11/23 06:52:58;;;;;;;7.13;3.42;;;7.50;99.90;;;;;;5054336;28;20387;-69
2022/11/23 06:55:24;;;;;;;4.82;2.75;;;7.60;99.90;;;;;;5036560;28;20056;-68
2022/11/23 06:57:50;;;;;;;5.88;3.60;;;7.50;99.90;;;;;;5054478;28;20045;-69
2022/11/23 07:00:17;;;;;;;7.47;3.20;;;7.80;99.90;;;;;;5054697;28;20453;-68
2022/11/23 07:02:43;;;;;;;5.95;2.80;;;7.50;99.90;;;;;;5054174;28;20044;-67
2022/11/23 07:05:09;;;;;;;6.22;3.10;;;7.70;99.90;;;;;;5036363;28;20052;-68
2022/11/23 07:07:34;;;;;;;11.77;3.00;;;7.60;99.90;;;;;;5054412;28;20045;-69
2022/11/23 07:10:00;;;;;;;7.65;2.92;;;7.60;99.90;;;;;;5054415;28;20033;-68
2022/11/23 07:12:26;;;;;;;7.97;3.08;;;8.30;99.90;;;;;;5054221;28;20452;-68
2022/11/23 07:14:52;;;;;;;10.68;2.78;;;7.70;99.90;;;;;;5054163;28;20214;-68
2022/11/23 07:17:18;;;;;;;8.75;3.63;;;7.50;99.90;;;;;;5054298;28;20479;-68
2022/11/23 07:19:43;;;;;;;5.20;2.95;;;7.40;99.90;;;;;;5036085;28;20428;-68
2022/11/23 07:22:09;;;;;;;7.38;2.80;;;7.50;99.90;;;;;;5036409;28;20059;-69
2022/11/23 07:24:35;;;;;;;5.93;3.13;;;8.10;99.90;;;;;;5020045;28;20116;-69
2022/11/23 07:27:00;;;;;;;4.70;2.40;;;7.60;99.90;;;;;;5036255;28;20041;-68
2022/11/23 07:29:26;;;;;;;8.68;2.58;;;7.50;99.90;;;;;;5053792;28;20037;-68
2022/11/23 07:31:51;;;;;;;3.95;2.50;;;8.00;99.90;;;;;;5054109;28;20037;-68
2022/11/23 07:34:17;;;;;;;7.22;3.08;;;7.70;99.90;;;;;;5036101;28;20041;-68
2022/11/23 07:36:43;;;;;;;3.42;1.90;;;7.40;99.90;;;;;;5054027;28;20502;-68
2022/11/23 07:39:10;;;;;;;3.15;1.92;;;7.50;99.90;;;;;;5053889;28;20065;-68
2022/11/23 07:41:35;;;;;;;8.10;2.47;;;7.50;99.90;;;;;;5053938;28;20094;-68
2022/11/23 07:44:01;;;;;;;4.00;1.77;;;7.60;99.90;;;;;;5053534;28;20040;-68
2022/11/23 07:46:27;;;;;;;3.30;2.25;;;7.60;99.90;;;;;;5053768;28;20040;-68
2022/11/23 07:48:54;;;;;;;7.05;2.00;;;7.70;99.90;;;;;;5053641;28;20056;-69
2022/11/23 07:51:19;;;;;;;3.55;2.05;;;7.60;99.90;;;;;;5053724;28;20555;-69
2022/11/23 07:53:46;;;;;;;3.05;1.98;;;7.60;99.90;;;;;;5053643;28;20115;-68
2022/11/23 07:56:12;;;;;;;5.50;2.25;;;7.60;99.90;;;;;;5053234;28;20056;-68
2022/11/23 07:58:37;;;;;;;5.85;1.92;;;7.20;99.90;;;;;;5035837;28;20033;-68
2022/11/23 08:01:03;;;;;;;2.55;1.67;;;7.50;99.90;;;;;;5053603;28;20123;-68
2022/11/23 08:03:29;;;;;;;5.55;2.38;;;7.50;99.90;;;;;;5052913;28;20037;-68
2022/11/23 08:05:55;;;;;;;5.90;2.33;;;7.60;99.90;;;;;;5053180;28;20095;-68
2022/11/23 08:08:21;;;;;;;6.18;2.13;;;7.50;99.90;;;;;;5053443;28;20132;-68
2022/11/23 08:10:47;;;;;;;4.45;2.13;;;8.00;99.90;;;;;;5053385;28;20116;-68
2022/11/23 08:13:12;;;;;;;8.32;2.40;;;7.80;99.90;;;;;;5053443;28;20435;-69
2022/11/23 08:15:38;;;;;;;4.00;2.10;;;7.80;99.90;;;;;;5053428;28;20472;-68
2022/11/23 08:18:04;;;;;;;5.38;1.95;;;7.80;99.90;;;;;;5035208;28;20097;-68
2022/11/23 08:20:30;;;;;;;6.05;2.22;;;7.60;99.90;;;;;;5053124;28;20103;-68
2022/11/23 08:22:56;;;;;;;4.15;2.20;;;7.70;99.90;;;;;;5035135;28;20094;-68
2022/11/23 08:25:26;;;;;;;5.15;1.98;;;7.80;99.90;;;;;;5018748;28;20045;-68
2022/11/23 08:27:57;;;;;;;4.75;2.05;;;7.70;99.90;;;;;;5053058;28;20049;-68
2022/11/23 08:30:23;;;;;;;6.40;3.27;;;7.70;99.90;;;;;;5035161;28;20049;-66
2022/11/23 08:32:48;;;;;;;6.78;2.22;;;7.80;99.90;;;;;;5053227;28;20484;-66
2022/11/23 08:35:14;;;;;;;3.35;1.98;;;7.80;99.90;;;;;;5053121;28;20047;-66
2022/11/23 08:37:40;;;;;;;4.00;2.08;;;7.80;99.90;;;;;;5052990;28;20055;-66
2022/11/23 08:40:06;;;;;;;2.88;1.60;;;7.80;99.90;;;;;;5052806;28;20049;-65
2022/11/23 08:42:32;;;;;;;3.38;2.00;;;7.80;99.90;;;;;;5052890;28;20037;-65
2022/11/23 08:44:58;;;;;;;4.88;1.60;;;7.70;99.90;;;;;;5053098;28;20033;-67
2022/11/23 08:47:25;;;;;;;3.92;1.95;;;8.40;99.90;;;;;;5053044;28;20048;-64
2022/11/23 08:49:51;;;;;;;6.15;2.78;;;8.00;99.90;;;;;;5052851;28;20116;-69
2022/11/23 08:52:16;;;;;;;4.20;2.20;;;8.10;99.90;;;;;;5052721;28;20077;-67
2022/11/23 08:54:42;;;;;;;9.52;2.38;;;7.90;99.90;;;;;;5052598;28;20048;-67
2022/11/23 08:57:08;;;;;;;5.22;1.98;;;8.60;99.90;;;;;;5034799;28;20049;-67
2022/11/23 08:59:33;;;;;;;3.80;2.10;;;8.70;99.90;;;;;;5053011;28;20114;-67
2022/11/23 09:01:59;;;;;;;6.95;2.10;;;8.00;99.90;;;;;;5053032;28;20462;-69
2022/11/23 09:04:26;;;;;;;6.90;2.42;;;8.10;99.90;;;;;;5034904;28;20037;-67
2022/11/23 09:06:52;;;;;;;7.47;2.28;;;8.00;99.90;;;;;;5052892;28;20175;-67
2022/11/23 09:09:18;;;;;;;6.05;2.42;;;8.10;99.90;;;;;;5035251;28;20205;-67
2022/11/23 09:11:43;;;;;;;4.90;3.03;;;8.10;99.90;;;;;;5052872;28;20403;-67
2022/11/23 09:14:09;;;;;;;5.05;2.15;;;8.10;99.90;;;;;;5052838;28;20037;-67
2022/11/23 09:16:35;;;;;;;4.60;2.17;;;8.30;99.90;;;;;;5055630;28;20156;-66
2022/11/23 09:19:01;;;;;;;9.57;2.28;;;8.30;99.90;;;;;;5056712;28;20480;-66
2022/11/23 09:21:29;;;;;;;4.13;1.92;;;8.30;99.90;;;;;;5056279;28;20033;-67
2022/11/23 09:23:55;;;;;;;3.15;2.03;;;8.30;99.90;;;;;;5056148;28;20041;-67
2022/11/23 09:26:22;;;;;;;5.25;1.52;;;8.20;99.90;;;;;;5056360;28;20092;-66
2022/11/23 09:28:47;;;;;;;3.35;1.90;;;8.30;99.90;;;;;;5056361;28;20040;-66
2022/11/23 09:31:13;;;;;;;5.55;2.05;;;8.20;99.90;;;;;;5056101;28;20501;-66
2022/11/23 09:33:39;;;;;;;6.22;2.22;;;8.30;99.90;;;;;;5056380;28;20381;-66
2022/11/23 09:36:04;;;;;;;6.10;2.13;;;8.30;99.90;;;;;;5056265;28;20040;-66
2022/11/23 09:38:30;;;;;;;4.90;2.10;;;8.30;99.90;;;;;;5055971;28;20040;-67
2022/11/23 09:41:19;;;;;;;3.08;1.90;;;8.30;99.90;;;;;;5056243;28;20048;-66
2022/11/23 09:43:51;;;;;;;3.67;2.05;;;8.30;99.90;;;;;;5026277;28;20084;-66
2022/11/23 09:46:38;;;;;;;5.70;2.10;;;8.40;99.90;;;;;;5055769;28;20045;-67
2022/11/23 09:49:12;;;;;;;5.50;1.90;;;8.50;99.90;;;;;;5055964;28;20403;-67
2022/11/23 09:51:40;;;;;;;4.60;2.10;;;8.40;99.90;;;;;;5055788;28;20037;-67
2022/11/23 09:54:22;;;;;;;4.20;2.35;;;9.10;99.90;;;;;;5055919;28;20033;-66
2022/11/23 09:56:50;;;;;;;3.58;1.95;;;8.50;99.90;;;;;;5055572;28;20047;-67
2022/11/23 09:59:38;;;;;;;3.78;2.35;;;8.70;99.90;;;;;;5037738;28;20115;-65
2022/11/23 10:02:04;;;;;;;3.97;1.75;;;8.70;99.90;;;;;;5055474;28;20032;-67
2022/11/23 10:04:34;;;;;;;5.13;1.90;;;8.60;99.90;;;;;;5037616;28;20073;-66
2022/11/23 10:07:24;;;;;;;4.72;1.60;;;8.60;99.90;;;;;;5037824;28;20042;-66
2022/11/23 10:10:11;;;;;;;2.92;1.70;;;8.60;99.90;;;;;;5037822;28;20037;-66
2022/11/23 10:12:58;;;;;;;7.80;2.00;;;8.60;99.90;;;;;;5055601;28;20124;-67
2022/11/23 10:15:30;;;;;;;10.52;1.90;;;8.60;99.90;;;;;;5055278;28;20119;-67
2022/11/23 10:18:01;;;;;;;3.72;1.60;;;8.90;99.90;;;;;;5055489;28;20114;-67
2022/11/23 10:20:42;;;;;;;3.95;1.55;;;8.60;99.90;;;;;;5037348;28;20032;-66
2022/11/23 10:23:30;;;;;;;5.70;1.40;;;8.60;99.90;;;;;;5055420;28;20036;-67
2022/11/23 10:25:56;;;;;;;5.82;2.40;;;8.60;99.90;;;;;;5018810;28;20041;-66
2022/11/23 10:28:23;;;;;;;4.47;2.33;;;9.00;99.90;;;;;;5054343;28;20052;-66
2022/11/23 10:31:04;;;;;;;1.95;1.42;;;8.70;99.90;;;;;;5055320;28;20468;-66
2022/11/23 10:33:36;;;;;;;3.35;1.40;;;8.70;99.90;;;;;;5054979;28;20033;-66
2022/11/23 10:36:02;;;;;;;5.82;1.70;;;8.70;99.90;;;;;;5055209;28;20040;-66
2022/11/23 10:38:28;;;;;;;6.30;1.52;;;8.80;99.90;;;;;;5037007;28;20048;-67
2022/11/23 10:41:09;;;;;;;5.43;1.70;;;9.30;99.90;;;;;;5055090;28;20048;-66
2022/11/23 10:44:03;;;;;;;6.03;1.50;;;8.80;99.90;;;;;;5055082;28;20468;-66
2022/11/23 10:46:38;;;;;;;6.85;1.60;;;8.70;99.90;;;;;;5054997;28;20040;-66
2022/11/23 10:49:54;;;;;;;3.95;1.50;;;8.70;99.90;;;;;;5036810;28;20395;-67
2022/11/23 10:52:32;;;;;;;5.00;1.90;;;9.10;99.90;;;;;;5012828;28;20041;-66
2022/11/23 10:55:04;;;;;;;2.65;1.10;;;8.80;99.90;;;;;;5053285;28;20049;-67
2022/11/23 10:57:49;;;;;;;3.88;1.33;;;8.70;99.90;;;;;;5054833;28;20040;-68
2022/11/23 11:00:18;;;;;;;13.52;1.92;;;8.70;99.90;;;;;;5036612;28;20037;-67
2022/11/23 11:02:49;;;;;;;4.13;1.42;;;8.70;99.90;;;;;;5054701;28;20099;-67
2022/11/23 11:05:36;;;;;;;3.15;1.27;;;8.70;99.90;;;;;;5054287;28;20048;-66
2022/11/23 11:08:25;;;;;;;4.78;1.30;;;8.70;99.90;;;;;;5019974;28;20491;-66
2022/11/23 11:10:58;;;;;;;9.10;1.70;;;8.80;99.90;;;;;;5054081;28;20029;-67
2022/11/23 11:13:42;;;;;;;3.75;1.23;;;9.00;99.90;;;;;;5054198;28;20045;-67
2022/11/23 11:16:35;;;;;;;5.88;1.45;;;8.90;99.90;;;;;;5054449;28;20589;-66
2022/11/23 11:19:21;;;;;;;4.50;1.20;;;8.90;99.90;;;;;;5052336;28;20049;-67
2022/11/23 11:21:47;;;;;;;9.27;1.20;;;9.00;99.90;;;;;;5054348;28;20499;-67
2022/11/23 11:24:37;;;;;;;2.10;0.95;;;9.10;99.90;;;;;;5054197;28;20365;-66
2022/11/23 11:27:11;;;;;;;3.70;1.02;;;9.20;99.90;;;;;;5047526;28;20080;-66
2022/11/23 11:29:43;;;;;;;5.25;1.52;;;9.30;99.90;;;;;;5053869;28;20080;-66
2022/11/23 11:32:43;;;;;;;6.45;1.63;;;9.60;99.90;;;;;;5054020;28;20040;-66
2022/11/23 11:35:32;;;;;;;3.00;1.08;;;9.80;99.90;;;;;;5033034;28;20053;-66
2022/11/23 11:38:19;;;;;;;4.47;1.58;;;10.00;99.90;;;;;;5053101;28;20053;-66
2022/11/23 11:40:50;;;;;;;2.60;0.98;;;10.40;99.90;;;;;;5054025;28;20044;-66
2022/11/23 11:43:30;;;;;;;4.22;1.30;;;10.90;99.90;;;;;;5053911;28;20048;-66
2022/11/23 11:46:02;;;;;;;4.25;1.15;;;;;;;;;;5053693;28;20147;-66
2022/11/23 11:48:32;;;;;;;3.60;1.13;;;;;;;;;;5053459;28;20051;-66
2022/11/23 11:51:06;;;;;;;4.87;1.47;;;;;;;;;;5035704;28;20083;-67
2022/11/23 11:53:48;;;;;;;6.13;1.20;;;;;;;;;;5035775;28;20080;-66
2022/11/23 11:56:17;;;;;;;3.17;1.35;;;;;;;;;;5053252;28;20049;-66
2022/11/23 11:59:08;;;;;;;4.63;1.30;;;11.70;99.90;;;;;;5053671;28;20059;-66
2022/11/23 12:01:41;;;;;;;;;;;11.60;99.90;;;;;;5019561;28;20087;-66
2022/11/23 12:04:15;;;;;;;6.45;1.27;;;11.70;99.90;;;;;;5053618;28;20382;-67
2022/11/23 12:06:52;;;;;;;3.65;1.00;;;11.70;99.90;;;;;;5053590;28;20115;-66
2022/11/23 12:09:30;;;;;;;1.55;0.77;;;11.60;99.90;;;;;;5053526;28;20051;-67
2022/11/23 12:11:57;;;;;;;6.07;1.45;;;11.30;99.90;;;;;;5053532;28;20041;-66
2022/11/23 12:14:23;;;;;;;3.58;1.17;;;11.20;99.90;;;;;;5053483;28;20068;-66
2022/11/23 12:17:05;;;;;;;3.92;1.75;;;11.00;99.90;;;;;;5018899;28;20084;-66
2022/11/23 12:19:42;;;;;;;3.95;1.20;;;10.80;99.90;;;;;;5035302;28;20120;-68
2022/11/23 12:22:31;;;;;;;2.90;0.82;;;10.70;99.90;;;;;;5053381;28;20072;-66
2022/11/23 12:25:10;;;;;;;6.63;0.93;;;10.80;99.90;;;;;;5053311;28;20076;-66
2022/11/23 12:27:43;;;;;;;3.10;0.90;;;10.70;99.90;;;;;;5053001;28;20395;-66
2022/11/23 12:30:37;;;;;;;2.08;1.17;;;10.50;99.90;;;;;;5053019;28;20041;-66
2022/11/23 12:33:11;;;;;;;2.92;1.00;;;10.40;99.90;;;;;;5052926;28;20084;-66
2022/11/23 12:36:05;;;;;;;3.67;1.25;;;10.40;99.90;;;;;;5053180;28;20062;-66
2022/11/23 12:38:46;;;;;;;5.47;1.10;;;10.40;99.90;;;;;;5035398;28;20581;-66
2022/11/23 12:41:22;;;;;;;3.20;1.25;;;10.40;99.90;;;;;;5035305;28;20102;-66
2022/11/23 12:44:02;;;;;;;2.30;0.90;;;10.30;99.90;;;;;;5052885;28;20041;-66
2022/11/23 12:46:44;;;;;;;3.60;1.00;;;10.20;99.40;;;;;;5052844;28;20037;-66
2022/11/23 12:49:16;;;;;;;2.65;0.95;;;10.10;99.90;;;;;;5053061;28;20120;-68
2022/11/23 12:51:48;;;;;;;3.72;0.95;;;10.10;99.90;;;;;;5056233;28;20043;-67
2022/11/23 12:54:17;;;;;;;4.40;0.63;;;10.10;99.90;;;;;;5057079;28;20043;-66
2022/11/23 12:57:14;;;;;;;2.45;0.82;;;10.10;99.90;;;;;;5056524;28;20068;-66
2022/11/23 13:00:04;;;;;;;2.33;0.80;;;10.00;99.70;;;;;;5057018;28;20502;-67
2022/11/23 13:03:02;;;;;;;2.72;1.02;;;10.00;97.50;;;;;;5056816;28;20066;-67
2022/11/23 13:05:42;;;;;;;5.22;0.93;;;10.00;96.70;;;;;;5056915;28;20084;-67
2022/11/23 13:08:26;;;;;;;2.42;0.77;;;10.00;97.60;;;;;;5056474;28;20045;-67
2022/11/23 13:11:03;;;;;;;1.33;0.65;;;9.90;99.30;;;;;;5056678;28;20064;-67